Time;durP1;ratioP1;P1;durP2;ratioP2;P2;SDS_P1;SDS_P2;PMS_P1;PMS_P2;Temp;Humidity;BMP_temperature;BMP_pressure;BME280_temperature;BME280_humidity;BME280_pressure;Samples;Min_cycle;Max_cycle;Signal;HPM_P1;HPM_P2
2021/07/16 00:02:20;;;;;;;11.80;8.48;;;19.80;99.90;;;18.74;100.00;101724.53;5034446;28;20033;-72
2021/07/16 00:04:46;;;;;;;11.90;8.60;;;19.80;99.90;;;18.65;100.00;101756.19;5022745;28;20026;-73
2021/07/16 00:07:12;;;;;;;12.65;9.57;;;19.70;99.90;;;18.55;100.00;101797.75;5022623;28;20033;-73
2021/07/16 00:09:38;;;;;;;13.63;9.07;;;19.60;99.90;;;18.51;100.00;101742.91;5018514;28;20083;-73
2021/07/16 00:12:05;;;;;;;15.13;9.38;;;19.50;99.90;;;18.46;100.00;101784.97;5019830;28;20495;-73
2021/07/16 00:14:32;;;;;;;12.23;8.88;;;19.60;99.90;;;18.46;100.00;101776.97;5020350;28;20044;-73
2021/07/16 00:17:00;;;;;;;11.80;8.93;;;19.50;99.90;;;18.32;100.00;101782.34;5022579;28;20030;-73
2021/07/16 00:19:26;;;;;;;13.85;9.18;;;19.40;99.90;;;18.28;100.00;101756.81;5023317;28;20013;-72
2021/07/16 00:21:53;;;;;;;13.10;9.43;;;19.40;99.90;;;18.36;100.00;101750.06;5040072;28;20041;-73
2021/07/16 00:24:19;;;;;;;12.02;9.13;;;19.50;99.90;;;18.48;100.00;101744.88;5026965;28;20033;-73
2021/07/16 00:26:46;;;;;;;13.43;9.45;;;19.60;99.90;;;18.55;100.00;101725.75;5014281;28;20028;-73
2021/07/16 00:29:14;;;;;;;13.88;9.65;;;19.60;99.90;;;18.58;100.00;101728.19;5040518;28;20100;-73
2021/07/16 00:31:40;;;;;;;12.85;9.32;;;19.60;99.90;;;18.58;100.00;101714.03;5005381;28;20032;-72
2021/07/16 00:34:06;;;;;;;15.30;8.88;;;19.60;99.90;;;18.45;100.00;101708.63;5031862;28;20056;-73
2021/07/16 00:36:32;;;;;;;12.32;9.55;;;19.50;99.90;;;18.47;100.00;101712.03;5039262;28;20022;-73
2021/07/16 00:38:58;;;;;;;13.20;10.10;;;19.60;99.90;;;18.52;100.00;101712.59;5038928;28;20491;-72
2021/07/16 00:41:24;;;;;;;15.15;10.05;;;19.60;99.90;;;18.62;100.00;101713.72;5022722;28;20063;-73
2021/07/16 00:43:51;;;;;;;15.20;10.30;;;19.70;99.90;;;18.65;100.00;101712.66;5023959;28;20040;-73
2021/07/16 00:46:16;;;;;;;12.77;8.75;;;19.70;99.90;;;18.66;100.00;101746.38;5022562;28;20508;-73
2021/07/16 00:48:43;;;;;;;12.23;7.55;;;19.70;99.90;;;18.60;100.00;101720.97;5004593;28;20029;-73
2021/07/16 00:51:10;;;;;;;13.48;8.60;;;19.60;99.90;;;18.55;100.00;101784.41;5019771;28;20029;-73
2021/07/16 00:53:38;;;;;;;11.55;8.40;;;19.60;99.90;;;18.48;100.00;101804.41;5038145;28;20017;-73
2021/07/16 00:56:05;;;;;;;16.52;8.93;;;19.50;99.90;;;18.38;100.00;101844.16;5037434;28;20100;-72
2021/07/16 00:58:31;;;;;;;18.83;9.30;;;19.50;99.90;;;18.34;100.00;101905.75;5021962;28;20093;-73
2021/07/16 01:00:57;;;;;;;15.20;10.10;;;19.40;99.90;;;18.25;100.00;101912.50;5038065;28;20052;-73
2021/07/16 01:03:23;;;;;;;17.25;11.50;;;19.30;99.90;;;18.18;100.00;101933.31;5023821;28;20104;-72
2021/07/16 01:05:49;;;;;;;18.13;11.85;;;19.20;99.90;;;18.17;100.00;101920.94;5024019;28;21025;-72
2021/07/16 01:08:15;;;;;;;19.27;12.20;;;19.20;99.90;;;18.21;100.00;101958.94;5005537;28;20025;-72
2021/07/16 01:10:41;;;;;;;17.98;12.65;;;19.30;99.90;;;18.22;100.00;102036.16;5028627;28;20045;-73
2021/07/16 01:13:13;;;;;;;18.77;12.30;;;19.20;99.90;;;18.21;100.00;102007.78;5023829;28;20464;-73
2021/07/16 01:15:43;;;;;;;17.60;12.20;;;19.20;99.90;;;18.18;100.00;102057.75;5023060;28;20029;-73
2021/07/16 01:18:09;;;;;;;17.08;12.98;;;19.20;99.90;;;18.20;100.00;102022.03;5003903;28;20461;-72
2021/07/16 01:20:35;;;;;;;17.30;11.75;;;19.20;99.90;;;18.17;100.00;101998.25;5022447;28;20025;-73
2021/07/16 01:23:28;;;;;;;20.17;12.50;;;19.20;99.90;;;18.18;100.00;101959.13;5021561;28;20052;-73
2021/07/16 01:25:54;;;;;;;20.70;12.68;;;19.20;99.90;;;18.17;100.00;102018.72;5025159;28;20033;-72
2021/07/16 01:28:21;;;;;;;15.15;11.27;;;19.20;99.90;;;18.15;100.00;102029.47;5021538;28;20065;-73
2021/07/16 01:30:51;;;;;;;13.70;9.88;;;19.10;99.90;;;18.04;100.00;102090.53;5020388;28;20025;-73
2021/07/16 01:33:20;;;;;;;12.88;8.88;;;19.00;99.90;;;17.68;100.00;102074.75;5039631;28;20103;-72
2021/07/16 01:35:46;;;;;;;16.95;9.13;;;18.70;99.90;;;17.41;100.00;102133.91;5020660;28;20021;-73
2021/07/16 01:38:12;;;;;;;19.10;9.90;;;18.60;99.90;;;17.36;100.00;102130.59;5022903;28;20041;-73
2021/07/16 01:40:39;;;;;;;17.88;9.88;;;18.50;99.90;;;17.32;100.00;102137.91;5024626;28;20466;-73
2021/07/16 01:43:10;;;;;;;15.55;9.80;;;18.40;99.90;;;17.32;100.00;102131.69;5036128;28;20140;-72
2021/07/16 01:45:39;;;;;;;13.40;9.05;;;18.40;99.90;;;17.35;100.00;102192.78;5038872;28;20116;-73
2021/07/16 01:48:10;;;;;;;13.73;9.93;;;18.40;99.90;;;17.38;100.00;102193.47;5034956;28;20448;-73
2021/07/16 01:50:42;;;;;;;16.70;10.52;;;18.50;99.90;;;17.42;100.00;102215.50;5035749;28;20795;-72
2021/07/16 01:53:10;;;;;;;14.93;10.40;;;18.50;99.90;;;17.43;100.00;102238.53;5004068;28;20049;-73
2021/07/16 01:55:38;;;;;;;16.98;11.32;;;18.50;99.90;;;17.45;100.00;102249.06;5039126;28;20036;-73
2021/07/16 01:58:11;;;;;;;25.20;12.10;;;18.50;99.90;;;17.46;100.00;102293.41;5020178;28;25445;-72
2021/07/16 02:00:42;;;;;;;16.83;11.40;;;18.50;99.90;;;17.41;100.00;102294.50;5019980;28;20059;-73
2021/07/16 02:03:11;;;;;;;14.25;9.90;;;18.50;99.90;;;17.36;100.00;102211.31;5021281;28;20065;-72
2021/07/16 02:05:40;;;;;;;15.50;10.98;;;18.40;99.90;;;17.34;100.00;102215.00;5019791;28;20058;-73
2021/07/16 02:08:26;;;;;;;19.25;11.25;;;18.40;99.90;;;17.34;100.00;102249.63;5002708;28;20051;-72
2021/07/16 02:10:55;;;;;;;13.93;10.63;;;18.40;99.90;;;17.34;100.00;102314.41;5020670;28;20037;-73
2021/07/16 02:13:23;;;;;;;20.42;11.63;;;18.40;99.90;;;17.33;100.00;102205.31;5020821;28;20284;-72
2021/07/16 02:15:52;;;;;;;18.13;12.10;;;18.40;99.90;;;17.32;100.00;102297.66;5019937;28;20036;-72
2021/07/16 02:18:19;;;;;;;21.67;10.73;;;18.40;99.90;;;17.22;100.00;102261.78;5028419;28;20029;-73
2021/07/16 02:20:48;;;;;;;22.13;6.55;;;18.20;99.90;;;16.97;100.00;102220.41;5019138;28;20032;-73
2021/07/16 02:23:19;;;;;;;23.90;3.80;;;18.00;99.90;;;16.68;100.00;102181.06;5020688;28;20045;-72
2021/07/16 02:25:45;;;;;;;15.02;3.55;;;17.80;99.90;;;16.52;100.00;102172.97;5023917;28;20030;-73
2021/07/16 02:28:22;;;;;;;5.97;4.35;;;17.70;99.90;;;16.47;100.00;102154.56;5036508;28;20378;-73
2021/07/16 02:30:49;;;;;;;8.38;5.13;;;17.60;99.90;;;16.50;100.00;102137.59;5037174;28;20048;-73
2021/07/16 02:33:16;;;;;;;7.60;4.90;;;17.60;99.90;;;16.56;100.00;102273.78;5006166;28;20017;-73
2021/07/16 02:35:44;;;;;;;12.98;6.10;;;17.70;99.90;;;16.61;100.00;102314.31;5004855;28;20481;-73
2021/07/16 02:38:11;;;;;;;19.98;11.98;;;17.80;99.90;;;16.73;100.00;102322.66;5035060;28;20107;-73
2021/07/16 02:40:37;;;;;;;17.92;12.10;;;17.90;99.90;;;16.85;100.00;102329.25;5022383;28;20045;-73
2021/07/16 02:43:05;;;;;;;17.60;10.75;;;17.90;99.90;;;16.82;100.00;102250.41;5020800;28;20034;-72
2021/07/16 02:45:32;;;;;;;15.52;10.90;;;17.90;99.90;;;16.84;100.00;102343.47;5028559;28;20023;-72
2021/07/16 02:47:59;;;;;;;21.75;11.38;;;18.00;99.90;;;16.80;100.00;102362.25;5003202;28;20029;-72
2021/07/16 02:50:32;;;;;;;14.18;9.05;;;17.80;99.90;;;16.58;100.00;102375.63;5016949;28;20037;-73
2021/07/16 02:52:58;;;;;;;13.82;9.18;;;17.70;99.90;;;16.52;100.00;102381.25;5037297;28;20029;-73
2021/07/16 02:55:24;;;;;;;17.77;9.63;;;17.70;99.90;;;16.50;100.00;102400.81;5036627;28;20018;-73
2021/07/16 02:57:52;;;;;;;14.00;9.25;;;17.70;99.90;;;16.42;100.00;102401.19;5019123;28;20033;-73
2021/07/16 03:00:29;;;;;;;17.17;10.05;;;17.60;99.90;;;16.37;100.00;102373.94;5020746;28;20342;-73
2021/07/16 03:02:58;;;;;;;17.65;11.77;;;17.50;99.90;;;16.36;100.00;102441.34;5020589;28;20053;-72
2021/07/16 03:05:29;;;;;;;24.25;12.27;;;17.50;99.90;;;16.32;100.00;102411.34;5020513;28;20033;-72
2021/07/16 03:07:57;;;;;;;20.92;12.07;;;17.50;99.90;;;16.30;100.00;104124.50;5020241;28;20128;-72
2021/07/16 03:10:45;;;;;;;26.50;13.88;;;17.40;99.90;;;16.33;100.00;103137.97;5020183;28;20021;-73
2021/07/16 03:13:18;;;;;;;25.83;13.48;;;17.50;99.90;;;16.36;100.00;102943.78;5043461;28;20155;-72
2021/07/16 03:15:45;;;;;;;18.60;11.55;;;17.50;99.90;;;16.37;100.00;102605.22;5022258;28;20061;-72
2021/07/16 03:18:13;;;;;;;21.60;12.68;;;17.50;99.90;;;16.38;100.00;102690.22;5019400;28;20316;-72
2021/07/16 03:20:44;;;;;;;19.45;13.23;;;17.50;99.90;;;16.44;100.00;102653.72;5018792;28;20029;-73
2021/07/16 03:23:14;;;;;;;22.23;12.05;;;17.60;99.90;;;16.48;100.00;102647.31;5010716;28;20493;-72
2021/07/16 03:25:41;;;;;;;31.42;13.65;;;17.70;99.90;;;16.56;100.00;102677.97;5020244;28;20382;-72
2021/07/16 03:28:10;;;;;;;19.02;13.13;;;17.70;99.90;;;16.53;100.00;102733.97;5019309;28;20026;-73
2021/07/16 03:30:37;;;;;;;21.73;12.50;;;17.70;99.90;;;16.49;100.00;102665.00;5021424;28;20456;-73
2021/07/16 03:33:05;;;;;;;18.95;12.30;;;17.70;99.90;;;16.49;100.00;102723.50;5021140;28;20053;-72
2021/07/16 03:35:31;;;;;;;17.33;11.27;;;17.70;99.90;;;16.42;100.00;102738.84;5021108;28;20029;-73
2021/07/16 03:37:57;;;;;;;16.67;9.70;;;17.60;99.90;;;16.35;100.00;102713.44;5018737;28;20022;-72
2021/07/16 03:40:28;;;;;;;14.98;10.15;;;17.60;99.90;;;16.33;100.00;102771.97;5035389;28;20041;-73
2021/07/16 03:42:55;;;;;;;19.38;10.38;;;17.60;99.90;;;16.39;100.00;102776.16;5020605;28;20103;-73
2021/07/16 03:45:21;;;;;;;17.48;10.07;;;17.70;99.90;;;16.48;100.00;102874.22;5022212;28;22312;-73
2021/07/16 03:47:48;;;;;;;19.58;10.80;;;17.80;99.90;;;16.64;100.00;102861.19;5018280;28;20508;-73
2021/07/16 03:50:21;;;;;;;17.45;10.48;;;18.00;99.90;;;16.72;100.00;102826.34;5019125;28;20382;-72
2021/07/16 03:52:49;;;;;;;19.40;11.00;;;18.10;99.90;;;16.89;100.00;102860.25;5026108;28;20167;-73
2021/07/16 03:55:16;;;;;;;22.33;11.63;;;18.30;99.90;;;17.13;100.00;102855.78;5005893;28;20494;-73
2021/07/16 04:00:15;;;;;;;18.13;12.00;;;19.40;99.90;;;18.30;100.00;102928.13;5022663;28;20453;-72
2021/07/16 04:02:42;;;;;;;16.45;9.98;;;20.40;99.90;;;18.97;100.00;102839.63;5004539;28;20045;-73
2021/07/16 04:05:10;;;;;;;13.20;8.07;;;21.00;99.90;;;19.55;100.00;102819.84;5036576;28;20035;-73
2021/07/16 04:07:41;;;;;;;12.40;7.78;;;21.80;99.90;;;20.33;99.00;102822.03;5020421;28;20018;-73
2021/07/16 04:10:09;;;;;;;12.73;7.55;;;22.70;99.90;;;21.02;95.19;102757.41;5039013;28;20029;-73
2021/07/16 04:12:35;;;;;;;10.90;7.22;;;23.40;99.90;;;21.47;91.74;102778.94;5022098;28;20057;-73
2021/07/16 04:15:02;;;;;;;11.68;6.93;;;23.90;99.90;;;21.94;91.38;110777.16;5021606;28;20029;-73
2021/07/16 04:17:28;;;;;;;14.88;7.35;;;24.50;99.90;;;22.56;87.18;106938.09;5050929;28;20025;-73
2021/07/16 04:19:54;;;;;;;13.65;7.32;;;25.10;99.90;;;22.78;84.09;104842.63;5044399;28;20030;-74
2021/07/16 04:22:23;;;;;;;9.88;7.45;;;25.10;99.90;;;22.86;83.94;104541.44;5040697;28;20041;-73
2021/07/16 04:24:51;;;;;;;11.93;7.82;;;25.50;99.90;;;23.22;83.55;104041.78;5029646;28;20478;-73
2021/07/16 04:27:17;;;;;;;13.65;7.00;;;25.90;99.90;;;23.57;80.70;103874.25;5037425;28;20044;-73
2021/07/16 04:29:44;;;;;;;10.48;6.53;;;26.30;99.90;;;24.10;79.55;103685.66;5039555;28;20041;-73
2021/07/16 04:32:13;;;;;;;11.25;7.38;;;26.90;99.90;;;24.45;78.17;103358.66;5021403;28;20362;-74
2021/07/16 04:34:41;;;;;;;11.40;6.78;;;27.10;99.90;;;25.23;72.36;103404.81;5023185;28;20081;-73
2021/07/16 04:37:08;;;;;;;10.07;5.10;;;27.10;99.90;;;25.58;70.27;103293.66;5037960;28;20425;-74
2021/07/16 04:39:35;;;;;;;12.10;5.30;;;27.00;99.90;;;25.56;71.46;103158.88;5023271;28;20076;-73
2021/07/16 04:42:02;;;;;;;10.52;4.85;;;27.20;99.90;;;25.91;69.34;103087.97;5023082;28;20037;-74
2021/07/16 04:44:30;;;;;;;10.63;5.57;;;26.70;99.90;;;25.29;70.91;103034.13;5039015;28;20028;-73
2021/07/16 04:46:57;;;;;;;9.27;6.65;;;26.10;99.90;;;25.25;71.93;102919.38;5022430;28;20034;-74
2021/07/16 04:49:23;;;;;;;10.35;6.72;;;26.70;99.90;;;25.57;72.50;103435.78;5030586;28;20480;-73
2021/07/16 04:51:50;;;;;;;14.38;6.82;;;;;;;26.11;71.01;104030.63;5051351;28;20157;-73
2021/07/16 04:54:16;;;;;;;11.45;6.97;;;28.70;99.90;;;26.61;69.41;103656.44;5038350;28;20033;-74
2021/07/16 04:56:43;;;;;;;10.57;6.85;;;29.40;99.90;;;27.05;67.25;103528.06;5040025;28;20443;-73
2021/07/16 04:59:10;;;;;;;12.68;6.93;;;29.70;99.90;;;27.20;66.79;103510.69;5023267;28;20393;-74
2021/07/16 05:01:36;;;;;;;13.15;6.70;;;30.10;99.90;;;27.41;65.25;103243.13;5020183;28;20401;-73
2021/07/16 05:04:03;;;;;;;8.57;6.60;;;30.30;99.90;;;27.81;63.11;102930.47;5039767;28;20469;-73
2021/07/16 05:06:29;;;;;;;12.55;7.35;;;30.40;99.90;;;27.90;64.57;102937.00;5005980;28;20098;-74
2021/07/16 05:08:55;;;;;;;7.78;6.63;;;30.40;99.90;;;28.32;60.13;103511.31;5024434;28;20115;-75
2021/07/16 05:11:22;;;;;;;9.98;6.45;;;30.40;99.90;;;28.36;60.91;102974.47;5038480;28;20522;-73
2021/07/16 05:13:49;;;;;;;8.32;6.63;;;30.60;99.90;;;28.53;60.97;103947.84;5038400;28;20025;-74
2021/07/16 05:16:16;;;;;;;8.10;6.47;;;31.10;99.90;;;28.95;58.33;103422.19;5022205;28;20017;-74
2021/07/16 05:18:43;;;;;;;10.02;6.93;;;31.40;99.90;;;29.28;57.56;103325.41;5022078;28;20059;-74
2021/07/16 05:21:12;;;;;;;11.43;7.03;;;31.90;99.90;;;29.53;58.63;103164.00;5022881;28;20766;-75
2021/07/16 05:23:39;;;;;;;7.55;6.72;;;32.40;99.90;;;29.74;56.90;102950.34;5006289;28;20033;-74
2021/07/16 05:26:05;;;;;;;11.30;7.13;;;32.60;99.90;;;29.32;56.29;102773.38;5038116;28;20079;-73
2021/07/16 05:28:31;;;;;;;14.20;7.03;;;32.20;99.90;;;29.07;58.58;102778.34;5036871;28;20105;-74
2021/07/16 05:30:57;;;;;;;9.98;6.55;;;32.10;99.90;;;29.13;57.56;102750.69;5021855;28;20024;-74
2021/07/16 05:33:23;;;;;;;12.32;6.43;;;31.60;99.90;;;27.97;60.03;102643.94;5039814;28;20550;-74
2021/07/16 05:35:50;;;;;;;7.78;6.35;;;30.50;99.90;;;27.39;64.08;102639.16;5038009;28;20104;-72
2021/07/16 05:38:17;;;;;;;9.95;6.97;;;30.10;99.90;;;26.84;65.68;102562.00;5037697;28;20493;-74
2021/07/16 05:40:43;;;;;;;8.82;6.50;;;29.30;99.90;;;26.76;65.52;102576.19;5021110;28;20083;-73
2021/07/16 05:43:12;;;;;;;10.27;6.35;;;29.50;99.90;;;27.26;66.80;102548.41;5038069;28;20048;-73
2021/07/16 05:45:40;;;;;;;7.90;5.60;;;30.00;99.90;;;27.58;63.62;102630.28;5036955;28;20040;-74
2021/07/16 05:48:10;;;;;;;6.25;4.72;;;29.70;99.90;;;26.91;65.33;102526.22;5020773;28;20442;-73
2021/07/16 05:50:41;;;;;;;12.57;4.97;;;29.20;99.90;;;26.53;66.57;102499.81;5038561;28;20494;-74
2021/07/16 05:53:09;;;;;;;6.93;5.07;;;29.10;99.90;;;26.94;66.58;102544.00;5014565;28;20117;-73
2021/07/16 05:55:36;;;;;;;6.28;5.00;;;28.90;99.90;;;26.75;66.92;102507.78;5022316;28;20109;-74
2021/07/16 05:58:04;;;;;;;11.90;5.20;;;28.80;99.90;;;26.57;67.08;102458.06;5028752;28;20029;-73
2021/07/16 06:00:31;;;;;;;8.50;4.72;;;29.00;99.90;;;26.73;68.61;102461.13;5038452;28;20400;-74
2021/07/16 06:02:58;;;;;;;10.40;4.90;;;28.90;99.90;;;26.58;66.63;104716.03;5035444;28;20087;-73
2021/07/16 06:05:24;;;;;;;5.45;4.20;;;28.90;99.90;;;26.77;64.83;104875.44;5036180;28;20065;-74
2021/07/16 06:07:50;;;;;;;7.38;4.70;;;28.60;99.90;;;26.43;66.21;103636.06;5036252;28;20036;-74
2021/07/16 06:10:16;;;;;;;7.68;4.32;;;28.40;99.90;;;26.69;66.63;103372.13;5024222;28;20052;-73
2021/07/16 06:12:42;;;;;;;8.02;4.78;;;28.80;99.90;;;27.23;64.95;103333.81;5020830;28;20031;-73
2021/07/16 06:15:10;;;;;;;4.95;3.92;;;28.90;99.90;;;26.98;64.72;103121.25;5020315;28;20029;-73
2021/07/16 06:17:37;;;;;;;9.20;4.50;;;28.80;99.90;;;26.91;65.89;103184.88;5024495;28;20509;-73
2021/07/16 06:20:08;;;;;;;6.20;3.95;;;28.70;99.90;;;26.97;65.01;102838.38;5026755;28;20865;-73
2021/07/16 06:22:35;;;;;;;5.28;4.05;;;28.70;99.90;;;27.06;65.11;102655.59;5019364;28;20044;-74
2021/07/16 06:25:04;;;;;;;4.30;3.75;;;28.80;99.90;;;26.82;64.03;102616.19;5030614;28;20037;-72
2021/07/16 06:27:29;;;;;;;6.20;3.67;;;28.10;99.90;;;26.20;66.86;102771.72;5026246;28;20120;-74
2021/07/16 06:29:56;;;;;;;11.30;3.83;;;;;;;26.20;66.16;102582.75;5038178;28;20032;-73
2021/07/16 06:32:22;;;;;;;7.68;3.95;;;27.80;99.90;;;26.16;66.91;102573.19;5043849;28;20036;-73
2021/07/16 06:34:48;;;;;;;6.20;4.50;;;27.90;99.90;;;26.39;67.90;102584.72;5040126;28;20017;-73
2021/07/16 06:37:14;;;;;;;6.93;3.55;;;28.10;99.90;;;26.77;66.13;102634.66;5036534;28;20094;-73
2021/07/16 06:39:40;;;;;;;5.55;3.63;;;28.60;99.90;;;27.27;63.24;102671.84;5036252;28;20373;-73
2021/07/16 06:42:06;;;;;;;5.15;3.20;;;28.60;99.90;;;27.13;65.52;102625.19;5036233;28;20060;-73
2021/07/16 06:44:34;;;;;;;5.35;3.42;;;28.70;99.90;;;27.37;62.65;102589.75;5020534;28;20045;-74
2021/07/16 06:47:00;;;;;;;6.13;3.80;;;28.90;99.90;;;27.42;62.05;102601.00;5037104;28;20493;-73
2021/07/16 06:49:26;;;;;;;4.35;3.83;;;28.80;99.90;;;27.83;61.90;102628.91;5037668;28;20021;-74
2021/07/16 06:51:58;;;;;;;6.78;4.05;;;29.20;99.90;;;28.43;61.51;102669.50;5001987;28;20037;-72
2021/07/16 06:54:25;;;;;;;6.97;4.15;;;30.00;99.90;;;28.56;59.61;102625.88;5012113;28;20032;-73
2021/07/16 06:56:53;;;;;;;10.80;5.43;;;29.70;99.90;;;27.85;62.32;102523.22;5036824;28;20029;-73
2021/07/16 06:59:20;;;;;;;8.02;6.32;;;29.40;99.90;;;27.94;64.50;102549.44;5035180;28;20388;-73
2021/07/16 07:01:47;;;;;;;9.75;6.57;;;29.00;99.90;;;27.21;66.21;102443.34;5036958;28;20095;-73
2021/07/16 07:04:13;;;;;;;7.53;5.68;;;28.50;99.90;;;27.02;66.44;102427.97;5018329;28;20061;-73
2021/07/16 07:06:39;;;;;;;11.75;5.93;;;28.50;99.90;;;27.41;64.62;102468.63;5036599;28;20048;-73
2021/07/16 07:09:05;;;;;;;8.20;6.07;;;29.30;99.90;;;28.83;63.27;102584.47;5020351;28;20061;-74
2021/07/16 07:11:31;;;;;;;10.45;6.15;;;30.20;99.90;;;28.54;61.79;102492.38;5021990;28;22809;-73
2021/07/16 07:13:58;;;;;;;9.30;5.97;;;30.50;99.90;;;29.44;60.32;102563.25;5017535;28;20060;-74
2021/07/16 07:16:24;;;;;;;10.48;7.00;;;31.10;99.90;;;30.00;56.76;102570.34;5021517;28;20064;-73
2021/07/16 07:18:50;;;;;;;9.45;6.75;;;30.80;99.90;;;29.63;58.01;102506.16;5033429;28;20033;-74
2021/07/16 07:21:16;;;;;;;11.98;8.23;;;30.80;99.90;;;29.26;58.05;102461.97;5029686;28;20535;-73
2021/07/16 07:23:43;;;;;;;16.90;7.78;;;30.20;99.90;;;28.83;60.67;102415.53;5037406;28;20374;-73
2021/07/16 07:26:09;;;;;;;10.40;7.72;;;30.10;99.90;;;29.34;58.15;102471.06;5026961;28;20465;-73
2021/07/16 07:28:36;;;;;;;9.77;6.53;;;30.80;99.90;;;30.43;55.51;102565.97;5031621;28;20033;-73
2021/07/16 07:31:03;;;;;;;13.35;7.82;;;30.60;99.90;;;29.65;59.82;102448.97;5033141;28;20365;-74
2021/07/16 07:33:29;;;;;;;12.48;7.72;;;31.10;99.90;;;29.89;57.48;102475.50;5022622;28;20068;-73
2021/07/16 07:35:56;;;;;;;10.85;7.75;;;31.30;99.90;;;30.14;55.17;102508.31;5040817;28;20179;-73
2021/07/16 07:38:22;;;;;;;10.95;7.57;;;31.50;99.90;;;30.69;55.19;103962.78;5039245;28;20034;-73
2021/07/16 07:40:49;;;;;;;9.93;7.63;;;31.50;99.90;;;30.95;54.24;103089.25;5041704;28;20029;-73
2021/07/16 07:43:16;;;;;;;10.48;7.10;;;31.80;99.90;;;30.82;52.07;102806.72;5023705;28;20127;-73
2021/07/16 07:45:42;;;;;;;10.35;7.20;;;31.70;99.90;;;30.58;53.90;102622.47;5007503;28;20014;-73
2021/07/16 07:48:08;;;;;;;12.85;7.00;;;31.70;99.90;;;31.14;52.70;102666.56;5031885;28;20025;-73
2021/07/16 07:50:34;;;;;;;9.55;6.72;;;32.70;99.90;;;32.31;48.12;102714.91;5040692;28;20037;-73
2021/07/16 07:53:01;;;;;;;10.52;6.85;;;32.90;99.90;;;31.81;48.43;102574.16;5048241;28;20131;-72
2021/07/16 07:55:28;;;;;;;10.60;7.05;;;32.50;99.90;;;31.34;50.58;102536.56;5035419;28;20071;-73
2021/07/16 07:57:54;;;;;;;9.60;6.55;;;32.10;99.90;;;31.68;50.88;102586.41;5023568;28;20147;-74
2021/07/16 08:00:25;;;;;;;9.82;7.07;;;32.10;99.90;;;31.38;52.99;102894.47;5026438;28;20176;-74
2021/07/16 08:02:51;;;;;;;10.45;6.45;;;31.90;99.90;;;31.02;52.53;102544.44;5040060;28;20669;-73
2021/07/16 08:05:18;;;;;;;10.27;7.10;;;31.40;99.90;;;30.71;52.75;102548.66;5038520;28;20021;-73
2021/07/16 08:07:45;;;;;;;11.00;7.50;;;32.00;99.90;;;31.39;51.69;102535.06;5040701;28;20025;-74
2021/07/16 08:10:15;;;;;;;12.20;7.57;;;31.90;99.90;;;31.07;52.68;102490.38;5022525;28;20396;-73
2021/07/16 08:12:42;;;;;;;10.15;6.90;;;31.90;99.90;;;30.36;53.27;102369.25;5023509;28;20049;-74
2021/07/16 08:15:12;;;;;;;9.27;6.97;;;31.30;99.90;;;30.63;56.33;102443.44;5037972;28;20470;-74
2021/07/16 08:17:39;;;;;;;9.70;7.15;;;31.80;99.90;;;31.27;53.91;102488.25;5040727;28;20086;-73
2021/07/16 08:20:10;;;;;;;11.40;7.78;;;32.50;99.90;;;31.38;53.01;102459.00;5039702;28;20030;-74
2021/07/16 08:23:19;;;;;;;12.80;7.13;;;32.20;99.90;;;30.87;54.57;102396.50;5053693;28;20032;-73
2021/07/16 08:25:49;;;;;;;10.30;6.88;;;31.70;99.90;;;30.39;53.60;102336.31;5023407;28;20053;-74
2021/07/16 08:28:15;;;;;;;11.38;7.70;;;31.30;99.90;;;29.97;54.34;102304.50;5024882;28;20021;-74
2021/07/16 08:30:41;;;;;;;9.98;7.20;;;30.70;99.90;;;29.17;57.24;102228.63;5023731;28;20451;-73
2021/07/16 08:33:07;;;;;;;25.05;8.57;;;30.50;99.90;;;29.37;57.83;102261.84;5025520;28;20014;-73
2021/07/16 08:35:34;;;;;;;9.65;7.43;;;30.70;99.90;;;29.72;57.63;102297.22;5026887;28;20104;-73
2021/07/16 08:38:01;;;;;;;11.80;7.80;;;31.00;99.90;;;30.16;55.94;102305.28;5039601;28;20047;-73
2021/07/16 08:40:27;;;;;;;13.05;8.13;;;31.50;99.90;;;30.61;55.25;102344.91;5038586;28;20666;-73
2021/07/16 08:42:57;;;;;;;11.18;8.60;;;31.30;99.90;;;30.00;57.01;102254.44;5025058;28;20049;-73
2021/07/16 08:45:24;;;;;;;10.35;7.40;;;31.10;99.90;;;29.43;57.35;102178.97;5022019;28;20033;-73
2021/07/16 08:47:51;;;;;;;10.98;7.70;;;30.40;99.90;;;29.04;58.99;102169.34;5023708;28;20021;-72
2021/07/16 08:50:17;;;;;;;10.77;7.63;;;30.40;99.90;;;29.36;57.55;102273.72;5039425;28;20025;-73
2021/07/16 08:52:45;;;;;;;15.68;7.22;;;30.40;99.90;;;29.22;59.49;102242.59;5038353;28;20049;-74
2021/07/16 08:55:14;;;;;;;12.00;8.57;;;30.20;99.90;;;29.31;59.17;102250.75;5030694;28;20491;-73
2021/07/16 08:57:41;;;;;;;12.35;9.15;;;30.10;99.90;;;28.86;60.74;102189.38;5022200;28;20159;-73
2021/07/16 09:00:14;;;;;;;15.00;9.05;;;29.90;99.90;;;28.92;61.46;102199.59;5021770;28;20025;-73
2021/07/16 09:03:15;;;;;;;11.48;8.18;;;30.40;99.90;;;28.96;61.13;102182.00;4985147;28;20049;-73
2021/07/16 09:06:06;;;;;;;10.90;8.45;;;30.20;99.90;;;28.79;61.28;102143.94;4977906;28;20076;-73
2021/07/16 09:08:53;;;;;;;11.60;8.68;;;29.80;99.90;;;29.10;63.29;102189.59;4977967;28;20126;-73
2021/07/16 09:11:36;;;;;;;16.15;9.32;;;30.30;99.90;;;29.68;60.13;102225.22;4982877;28;20037;-73
2021/07/16 09:14:35;;;;;;;13.38;8.80;;;30.70;99.90;;;29.43;57.18;102174.38;4992962;28;20033;-73
2021/07/16 09:17:36;;;;;;;10.20;7.93;;;29.90;99.90;;;28.71;64.26;102094.25;4979817;28;20041;-73
2021/07/16 09:20:42;;;;;;;12.23;8.27;;;29.80;99.90;;;29.06;60.27;102147.50;5001187;28;20033;-73
2021/07/16 09:23:58;;;;;;;12.57;7.03;;;30.20;99.90;;;29.78;57.79;102207.00;4982789;28;20100;-73
2021/07/16 09:27:11;;;;;;;8.95;7.28;;;30.40;99.90;;;29.68;56.84;102166.38;4993225;28;20060;-73
2021/07/16 09:30:40;;;;;;;10.05;7.05;;;30.10;99.90;;;28.99;57.51;102076.81;4998962;28;20070;-73
2021/07/16 09:34:03;;;;;;;9.25;5.63;;;30.10;99.90;;;29.33;57.37;102094.13;4987489;28;20058;-73
2021/07/16 09:37:33;;;;;;;6.82;5.35;;;30.20;99.90;;;29.26;58.18;102087.66;4980358;28;20072;-74
2021/07/16 09:40:39;;;;;;;8.65;5.40;;;30.20;99.90;;;29.42;54.06;102087.75;4993847;28;20401;-73
2021/07/16 09:43:46;;;;;;;6.88;5.40;;;30.00;99.90;;;29.19;52.91;102063.88;4980050;28;20048;-73
2021/07/16 09:47:03;;;;;;;7.60;6.60;;;30.20;99.90;;;29.67;52.12;102091.38;4990373;28;20033;-73
2021/07/16 09:50:34;;;;;;;11.15;5.22;;;30.30;99.90;;;30.04;51.96;102128.19;4981448;28;20056;-73
2021/07/16 09:53:58;;;;;;;7.60;6.05;;;30.30;99.90;;;29.01;53.65;101995.31;4986921;28;20556;-73
2021/07/16 09:57:45;;;;;;;8.48;5.93;;;29.60;99.90;;;28.31;59.71;101943.88;4979422;28;20044;-73
2021/07/16 10:01:02;;;;;;;9.43;6.40;;;29.60;99.90;;;28.59;57.60;101980.66;4991936;28;20078;-73
2021/07/16 10:04:36;;;;;;;9.18;6.05;;;29.80;99.90;;;29.34;55.91;102055.16;4990970;28;20124;-73
2021/07/16 10:07:51;;;;;;;8.82;6.25;;;30.10;99.90;;;29.45;56.13;102057.56;4985282;28;20033;-73
2021/07/16 10:11:29;;;;;;;13.30;5.55;;;29.70;99.90;;;28.42;58.55;101963.44;4977447;28;20508;-73
2021/07/16 10:15:12;;;;;;;8.00;5.88;;;29.00;99.90;;;28.56;58.98;102009.94;4984249;28;20389;-73
2021/07/16 10:18:40;;;;;;;6.88;5.60;;;30.00;99.90;;;30.15;58.93;102124.28;4979929;28;20178;-73
2021/07/16 10:22:14;;;;;;;;;;;30.30;99.90;;;30.22;54.02;102114.47;4979549;28;21392;-73
2021/07/16 10:26:06;;;;;;;11.13;5.50;;;30.30;99.90;;;29.20;52.60;101996.94;4985603;28;20003;-74
2021/07/16 10:29:37;;;;;;;6.68;5.40;;;30.30;99.90;;;30.32;53.72;102095.31;4998279;28;20317;-73
2021/07/16 10:33:17;;;;;;;10.55;5.53;;;30.80;99.90;;;30.18;52.76;102061.50;4983948;28;20401;-73
2021/07/16 10:37:03;;;;;;;6.28;5.18;;;31.00;99.90;;;30.09;52.98;102258.03;4986743;28;20048;-73